sensor_id;sensor_type;location;lat;lon;timestamp;P1;durP1;ratioP1;P2;durP2;ratioP2
68089;SDS011;54880;50.986;6.990;2022-11-21T00:00:10;15.00;;;3.10;;
68089;SDS011;54880;50.986;6.990;2022-11-21T00:02:35;15.23;;;3.27;;
68089;SDS011;54880;50.986;6.990;2022-11-21T00:05:01;20.43;;;4.00;;
68089;SDS011;54880;50.986;6.990;2022-11-21T00:07:26;17.03;;;3.80;;
68089;SDS011;54880;50.986;6.990;2022-11-21T00:09:51;16.83;;;3.90;;
68089;SDS011;54880;50.986;6.990;2022-11-21T00:12:17;18.50;;;3.47;;
68089;SDS011;54880;50.986;6.990;2022-11-21T00:14:42;14.43;;;2.93;;
68089;SDS011;54880;50.986;6.990;2022-11-21T00:17:07;16.10;;;4.03;;
68089;SDS011;54880;50.986;6.990;2022-11-21T00:19:32;16.10;;;3.87;;
68089;SDS011;54880;50.986;6.990;2022-11-21T00:21:57;16.37;;;2.90;;
68089;SDS011;54880;50.986;6.990;2022-11-21T00:24:23;17.23;;;4.13;;
68089;SDS011;54880;50.986;6.990;2022-11-21T00:26:48;17.87;;;3.03;;
68089;SDS011;54880;50.986;6.990;2022-11-21T00:29:13;18.00;;;3.40;;
68089;SDS011;54880;50.986;6.990;2022-11-21T00:31:38;24.20;;;4.00;;
68089;SDS011;54880;50.986;6.990;2022-11-21T00:34:04;16.23;;;3.57;;
68089;SDS011;54880;50.986;6.990;2022-11-21T00:36:29;16.63;;;3.47;;
68089;SDS011;54880;50.986;6.990;2022-11-21T00:38:54;15.43;;;3.07;;
68089;SDS011;54880;50.986;6.990;2022-11-21T00:41:19;17.33;;;3.10;;
68089;SDS011;54880;50.986;6.990;2022-11-21T00:43:44;17.47;;;3.80;;
68089;SDS011;54880;50.986;6.990;2022-11-21T00:46:10;17.97;;;3.53;;
68089;SDS011;54880;50.986;6.990;2022-11-21T00:48:35;19.63;;;3.00;;
68089;SDS011;54880;50.986;6.990;2022-11-21T00:51:00;19.53;;;3.27;;
68089;SDS011;54880;50.986;6.990;2022-11-21T00:53:26;18.20;;;3.63;;
68089;SDS011;54880;50.986;6.990;2022-11-21T00:55:51;18.17;;;3.80;;
68089;SDS011;54880;50.986;6.990;2022-11-21T00:58:16;20.90;;;3.30;;
68089;SDS011;54880;50.986;6.990;2022-11-21T01:00:41;17.00;;;3.67;;
68089;SDS011;54880;50.986;6.990;2022-11-21T01:03:07;22.40;;;3.30;;
68089;SDS011;54880;50.986;6.990;2022-11-21T01:05:32;12.23;;;3.30;;
68089;SDS011;54880;50.986;6.990;2022-11-21T01:07:57;15.53;;;3.57;;
68089;SDS011;54880;50.986;6.990;2022-11-21T01:10:22;19.13;;;3.73;;
68089;SDS011;54880;50.986;6.990;2022-11-21T01:12:48;17.40;;;3.60;;
68089;SDS011;54880;50.986;6.990;2022-11-21T01:15:13;22.67;;;3.93;;
68089;SDS011;54880;50.986;6.990;2022-11-21T01:17:39;14.48;;;3.72;;
68089;SDS011;54880;50.986;6.990;2022-11-21T01:20:05;15.87;;;3.53;;
68089;SDS011;54880;50.986;6.990;2022-11-21T01:22:31;19.57;;;3.80;;
68089;SDS011;54880;50.986;6.990;2022-11-21T01:24:56;25.73;;;3.70;;
68089;SDS011;54880;50.986;6.990;2022-11-21T01:27:22;14.97;;;3.87;;
68089;SDS011;54880;50.986;6.990;2022-11-21T01:29:47;17.97;;;4.00;;
68089;SDS011;54880;50.986;6.990;2022-11-21T01:32:12;18.73;;;3.83;;
68089;SDS011;54880;50.986;6.990;2022-11-21T01:34:37;18.00;;;3.60;;
68089;SDS011;54880;50.986;6.990;2022-11-21T01:37:02;15.47;;;3.60;;
68089;SDS011;54880;50.986;6.990;2022-11-21T01:39:28;16.10;;;3.90;;
68089;SDS011;54880;50.986;6.990;2022-11-21T01:41:53;20.50;;;4.27;;
68089;SDS011;54880;50.986;6.990;2022-11-21T01:44:19;20.07;;;3.87;;
68089;SDS011;54880;50.986;6.990;2022-11-21T01:46:46;12.35;;;3.22;;
68089;SDS011;54880;50.986;6.990;2022-11-21T01:49:13;15.68;;;3.03;;
68089;SDS011;54880;50.986;6.990;2022-11-21T01:51:40;17.67;;;3.67;;
68089;SDS011;54880;50.986;6.990;2022-11-21T01:54:27;16.40;;;3.63;;
68089;SDS011;54880;50.986;6.990;2022-11-21T01:59:24;18.63;;;3.95;;
68089;SDS011;54880;50.986;6.990;2022-11-21T02:01:51;15.95;;;4.30;;
68089;SDS011;54880;50.986;6.990;2022-11-21T02:04:17;17.03;;;4.63;;
68089;SDS011;54880;50.986;6.990;2022-11-21T02:06:43;13.18;;;4.13;;
68089;SDS011;54880;50.986;6.990;2022-11-21T02:09:09;17.80;;;4.40;;
68089;SDS011;54880;50.986;6.990;2022-11-21T02:11:39;21.08;;;4.65;;
68089;SDS011;54880;50.986;6.990;2022-11-21T02:14:06;19.13;;;4.30;;
68089;SDS011;54880;50.986;6.990;2022-11-21T02:16:31;10.87;;;3.27;;
68089;SDS011;54880;50.986;6.990;2022-11-21T02:18:57;19.05;;;4.30;;
68089;SDS011;54880;50.986;6.990;2022-11-21T02:21:30;17.40;;;4.30;;
68089;SDS011;54880;50.986;6.990;2022-11-21T02:24:04;15.18;;;3.78;;
68089;SDS011;54880;50.986;6.990;2022-11-21T02:26:31;19.95;;;4.10;;
68089;SDS011;54880;50.986;6.990;2022-11-21T02:28:57;17.43;;;3.73;;
68089;SDS011;54880;50.986;6.990;2022-11-21T02:31:22;18.43;;;4.33;;
68089;SDS011;54880;50.986;6.990;2022-11-21T02:33:47;16.90;;;4.40;;
68089;SDS011;54880;50.986;6.990;2022-11-21T02:38:57;14.02;;;3.30;;
68089;SDS011;54880;50.986;6.990;2022-11-21T02:41:22;13.03;;;3.67;;
68089;SDS011;54880;50.986;6.990;2022-11-21T02:44:07;18.70;;;3.38;;
68089;SDS011;54880;50.986;6.990;2022-11-21T02:46:34;18.17;;;3.50;;
68089;SDS011;54880;50.986;6.990;2022-11-21T02:48:59;12.13;;;3.00;;
68089;SDS011;54880;50.986;6.990;2022-11-21T02:51:28;14.65;;;3.30;;
68089;SDS011;54880;50.986;6.990;2022-11-21T02:53:53;12.33;;;2.60;;
68089;SDS011;54880;50.986;6.990;2022-11-21T02:56:18;15.80;;;3.30;;
68089;SDS011;54880;50.986;6.990;2022-11-21T02:58:43;15.00;;;2.90;;
68089;SDS011;54880;50.986;6.990;2022-11-21T03:01:09;15.33;;;3.20;;
68089;SDS011;54880;50.986;6.990;2022-11-21T03:03:34;11.17;;;3.00;;
68089;SDS011;54880;50.986;6.990;2022-11-21T03:05:59;11.27;;;3.13;;
68089;SDS011;54880;50.986;6.990;2022-11-21T03:08:24;15.10;;;4.00;;
68089;SDS011;54880;50.986;6.990;2022-11-21T03:10:49;13.67;;;2.90;;
68089;SDS011;54880;50.986;6.990;2022-11-21T03:13:15;16.87;;;3.23;;
68089;SDS011;54880;50.986;6.990;2022-11-21T03:15:40;15.43;;;2.97;;
68089;SDS011;54880;50.986;6.990;2022-11-21T03:18:05;12.03;;;2.70;;
68089;SDS011;54880;50.986;6.990;2022-11-21T03:20:31;10.27;;;2.60;;
68089;SDS011;54880;50.986;6.990;2022-11-21T03:22:56;13.43;;;2.63;;
68089;SDS011;54880;50.986;6.990;2022-11-21T03:25:22;16.53;;;4.00;;
68089;SDS011;54880;50.986;6.990;2022-11-21T03:27:50;13.00;;;2.93;;
68089;SDS011;54880;50.986;6.990;2022-11-21T03:30:16;13.45;;;2.53;;
68089;SDS011;54880;50.986;6.990;2022-11-21T03:32:42;13.33;;;2.40;;
68089;SDS011;54880;50.986;6.990;2022-11-21T03:35:07;15.50;;;2.80;;
68089;SDS011;54880;50.986;6.990;2022-11-21T03:37:32;15.77;;;2.80;;
68089;SDS011;54880;50.986;6.990;2022-11-21T03:39:58;12.97;;;2.67;;
68089;SDS011;54880;50.986;6.990;2022-11-21T03:42:23;13.47;;;2.77;;
68089;SDS011;54880;50.986;6.990;2022-11-21T03:44:48;14.43;;;2.70;;
68089;SDS011;54880;50.986;6.990;2022-11-21T03:47:13;11.43;;;2.53;;
68089;SDS011;54880;50.986;6.990;2022-11-21T03:49:38;14.13;;;2.83;;
68089;SDS011;54880;50.986;6.990;2022-11-21T03:52:04;11.63;;;3.03;;
68089;SDS011;54880;50.986;6.990;2022-11-21T03:54:29;14.73;;;2.90;;
68089;SDS011;54880;50.986;6.990;2022-11-21T03:56:54;10.93;;;2.77;;
68089;SDS011;54880;50.986;6.990;2022-11-21T03:59:19;13.00;;;3.27;;
68089;SDS011;54880;50.986;6.990;2022-11-21T04:01:45;13.47;;;2.37;;
68089;SDS011;54880;50.986;6.990;2022-11-21T04:04:10;11.18;;;2.65;;
68089;SDS011;54880;50.986;6.990;2022-11-21T04:06:35;11.47;;;2.80;;
68089;SDS011;54880;50.986;6.990;2022-11-21T04:09:01;15.30;;;2.90;;
68089;SDS011;54880;50.986;6.990;2022-11-21T04:11:26;12.50;;;2.90;;
68089;SDS011;54880;50.986;6.990;2022-11-21T04:13:51;13.83;;;2.43;;
68089;SDS011;54880;50.986;6.990;2022-11-21T04:16:16;22.07;;;2.90;;
68089;SDS011;54880;50.986;6.990;2022-11-21T04:18:41;10.73;;;3.00;;
68089;SDS011;54880;50.986;6.990;2022-11-21T04:21:07;10.47;;;2.40;;
68089;SDS011;54880;50.986;6.990;2022-11-21T04:23:32;11.83;;;2.60;;
68089;SDS011;54880;50.986;6.990;2022-11-21T04:25:58;17.03;;;3.30;;
68089;SDS011;54880;50.986;6.990;2022-11-21T04:28:23;13.23;;;2.77;;
68089;SDS011;54880;50.986;6.990;2022-11-21T04:30:48;11.27;;;2.87;;
68089;SDS011;54880;50.986;6.990;2022-11-21T04:33:14;12.70;;;2.63;;
68089;SDS011;54880;50.986;6.990;2022-11-21T04:35:41;12.77;;;2.38;;
68089;SDS011;54880;50.986;6.990;2022-11-21T04:38:06;15.90;;;2.80;;
68089;SDS011;54880;50.986;6.990;2022-11-21T04:40:32;20.97;;;3.23;;
68089;SDS011;54880;50.986;6.990;2022-11-21T04:42:57;12.60;;;2.60;;
68089;SDS011;54880;50.986;6.990;2022-11-21T04:45:22;12.57;;;2.40;;
68089;SDS011;54880;50.986;6.990;2022-11-21T04:47:47;13.13;;;2.40;;
68089;SDS011;54880;50.986;6.990;2022-11-21T04:50:14;11.52;;;2.50;;
68089;SDS011;54880;50.986;6.990;2022-11-21T04:52:40;7.50;;;2.20;;
68089;SDS011;54880;50.986;6.990;2022-11-21T04:55:06;12.10;;;2.67;;
68089;SDS011;54880;50.986;6.990;2022-11-21T04:57:31;12.35;;;2.42;;
68089;SDS011;54880;50.986;6.990;2022-11-21T04:59:57;9.57;;;2.23;;
68089;SDS011;54880;50.986;6.990;2022-11-21T05:02:22;15.23;;;2.63;;
68089;SDS011;54880;50.986;6.990;2022-11-21T05:04:47;11.13;;;2.50;;
68089;SDS011;54880;50.986;6.990;2022-11-21T05:07:13;11.35;;;3.22;;
68089;SDS011;54880;50.986;6.990;2022-11-21T05:09:38;15.77;;;3.07;;
68089;SDS011;54880;50.986;6.990;2022-11-21T05:12:03;9.53;;;2.67;;
68089;SDS011;54880;50.986;6.990;2022-11-21T05:14:47;13.03;;;3.10;;
68089;SDS011;54880;50.986;6.990;2022-11-21T05:17:13;10.33;;;2.60;;
68089;SDS011;54880;50.986;6.990;2022-11-21T05:19:38;14.57;;;2.93;;
68089;SDS011;54880;50.986;6.990;2022-11-21T05:22:03;11.35;;;2.63;;
68089;SDS011;54880;50.986;6.990;2022-11-21T05:24:28;14.13;;;2.97;;
68089;SDS011;54880;50.986;6.990;2022-11-21T05:26:54;14.80;;;3.08;;
68089;SDS011;54880;50.986;6.990;2022-11-21T05:29:19;9.68;;;3.25;;
68089;SDS011;54880;50.986;6.990;2022-11-21T05:31:44;13.05;;;3.53;;
68089;SDS011;54880;50.986;6.990;2022-11-21T05:34:10;13.43;;;3.57;;
68089;SDS011;54880;50.986;6.990;2022-11-21T05:36:35;16.30;;;4.60;;
68089;SDS011;54880;50.986;6.990;2022-11-21T05:39:00;12.13;;;3.63;;
68089;SDS011;54880;50.986;6.990;2022-11-21T05:41:25;14.17;;;4.10;;
68089;SDS011;54880;50.986;6.990;2022-11-21T05:43:51;14.27;;;4.23;;
68089;SDS011;54880;50.986;6.990;2022-11-21T05:46:17;13.10;;;4.70;;
68089;SDS011;54880;50.986;6.990;2022-11-21T05:48:43;16.05;;;4.88;;
68089;SDS011;54880;50.986;6.990;2022-11-21T05:51:08;14.07;;;4.90;;
68089;SDS011;54880;50.986;6.990;2022-11-21T05:53:34;9.73;;;4.50;;
68089;SDS011;54880;50.986;6.990;2022-11-21T05:56:09;17.00;;;5.20;;
68089;SDS011;54880;50.986;6.990;2022-11-21T05:58:35;15.63;;;5.20;;
68089;SDS011;54880;50.986;6.990;2022-11-21T06:01:00;15.70;;;5.40;;
68089;SDS011;54880;50.986;6.990;2022-11-21T06:03:26;18.43;;;5.20;;
68089;SDS011;54880;50.986;6.990;2022-11-21T06:05:56;14.50;;;5.67;;
68089;SDS011;54880;50.986;6.990;2022-11-21T06:08:22;16.88;;;5.80;;
68089;SDS011;54880;50.986;6.990;2022-11-21T06:10:47;18.47;;;6.00;;
68089;SDS011;54880;50.986;6.990;2022-11-21T06:13:12;11.23;;;5.50;;
68089;SDS011;54880;50.986;6.990;2022-11-21T06:15:50;16.60;;;6.82;;
68089;SDS011;54880;50.986;6.990;2022-11-21T06:18:15;15.30;;;6.20;;
68089;SDS011;54880;50.986;6.990;2022-11-21T06:20:41;19.23;;;6.07;;
68089;SDS011;54880;50.986;6.990;2022-11-21T06:23:06;15.23;;;6.07;;
68089;SDS011;54880;50.986;6.990;2022-11-21T06:25:31;15.37;;;6.03;;
68089;SDS011;54880;50.986;6.990;2022-11-21T06:27:58;15.57;;;6.27;;
68089;SDS011;54880;50.986;6.990;2022-11-21T06:30:23;18.50;;;6.35;;
68089;SDS011;54880;50.986;6.990;2022-11-21T06:32:48;21.03;;;6.23;;
68089;SDS011;54880;50.986;6.990;2022-11-21T06:35:13;16.43;;;5.70;;
68089;SDS011;54880;50.986;6.990;2022-11-21T06:37:39;20.90;;;6.03;;
68089;SDS011;54880;50.986;6.990;2022-11-21T06:40:04;14.20;;;5.63;;
68089;SDS011;54880;50.986;6.990;2022-11-21T06:42:31;15.07;;;5.70;;
68089;SDS011;54880;50.986;6.990;2022-11-21T06:44:56;15.18;;;5.75;;
68089;SDS011;54880;50.986;6.990;2022-11-21T06:47:21;14.80;;;6.10;;
68089;SDS011;54880;50.986;6.990;2022-11-21T06:49:46;14.87;;;5.97;;
68089;SDS011;54880;50.986;6.990;2022-11-21T06:52:11;17.37;;;6.20;;
68089;SDS011;54880;50.986;6.990;2022-11-21T06:54:37;14.77;;;6.60;;
68089;SDS011;54880;50.986;6.990;2022-11-21T06:57:02;15.70;;;6.30;;
68089;SDS011;54880;50.986;6.990;2022-11-21T06:59:27;16.93;;;5.80;;
68089;SDS011;54880;50.986;6.990;2022-11-21T07:01:52;13.17;;;6.17;;
68089;SDS011;54880;50.986;6.990;2022-11-21T07:04:18;19.47;;;6.60;;
68089;SDS011;54880;50.986;6.990;2022-11-21T07:06:43;14.73;;;6.80;;
68089;SDS011;54880;50.986;6.990;2022-11-21T07:09:08;12.97;;;6.27;;
68089;SDS011;54880;50.986;6.990;2022-11-21T07:11:33;13.43;;;6.00;;
68089;SDS011;54880;50.986;6.990;2022-11-21T07:13:59;19.43;;;6.47;;
68089;SDS011;54880;50.986;6.990;2022-11-21T07:16:24;15.63;;;7.10;;
68089;SDS011;54880;50.986;6.990;2022-11-21T07:18:50;19.73;;;8.00;;
68089;SDS011;54880;50.986;6.990;2022-11-21T07:21:15;15.23;;;7.30;;
68089;SDS011;54880;50.986;6.990;2022-11-21T07:23:40;19.73;;;7.93;;
68089;SDS011;54880;50.986;6.990;2022-11-21T07:26:06;17.47;;;8.17;;
68089;SDS011;54880;50.986;6.990;2022-11-21T07:28:32;13.43;;;7.38;;
68089;SDS011;54880;50.986;6.990;2022-11-21T07:30:58;19.70;;;7.93;;
68089;SDS011;54880;50.986;6.990;2022-11-21T07:33:24;15.82;;;7.60;;
68089;SDS011;54880;50.986;6.990;2022-11-21T07:35:49;13.83;;;7.10;;
68089;SDS011;54880;50.986;6.990;2022-11-21T07:38:14;16.10;;;7.20;;
68089;SDS011;54880;50.986;6.990;2022-11-21T07:40:39;16.83;;;7.13;;
68089;SDS011;54880;50.986;6.990;2022-11-21T07:43:05;15.17;;;6.73;;
68089;SDS011;54880;50.986;6.990;2022-11-21T07:45:30;13.10;;;6.23;;
68089;SDS011;54880;50.986;6.990;2022-11-21T07:47:56;16.37;;;6.87;;
68089;SDS011;54880;50.986;6.990;2022-11-21T07:50:21;12.63;;;6.68;;
68089;SDS011;54880;50.986;6.990;2022-11-21T07:52:47;12.93;;;6.13;;
68089;SDS011;54880;50.986;6.990;2022-11-21T07:55:12;11.87;;;5.90;;
68089;SDS011;54880;50.986;6.990;2022-11-21T07:57:37;11.53;;;5.63;;
68089;SDS011;54880;50.986;6.990;2022-11-21T08:00:02;13.03;;;5.47;;
68089;SDS011;54880;50.986;6.990;2022-11-21T08:02:29;12.35;;;5.45;;
68089;SDS011;54880;50.986;6.990;2022-11-21T08:04:54;13.93;;;4.87;;
68089;SDS011;54880;50.986;6.990;2022-11-21T08:07:20;15.93;;;5.43;;
68089;SDS011;54880;50.986;6.990;2022-11-21T08:09:46;16.85;;;6.00;;
68089;SDS011;54880;50.986;6.990;2022-11-21T08:12:11;14.67;;;4.90;;
68089;SDS011;54880;50.986;6.990;2022-11-21T08:14:37;14.93;;;5.50;;
68089;SDS011;54880;50.986;6.990;2022-11-21T08:17:03;11.55;;;5.00;;
68089;SDS011;54880;50.986;6.990;2022-11-21T08:19:28;15.50;;;5.57;;
68089;SDS011;54880;50.986;6.990;2022-11-21T08:21:53;10.57;;;4.93;;
68089;SDS011;54880;50.986;6.990;2022-11-21T08:24:18;13.93;;;5.57;;
68089;SDS011;54880;50.986;6.990;2022-11-21T08:26:44;16.10;;;5.40;;
68089;SDS011;54880;50.986;6.990;2022-11-21T08:29:09;13.97;;;5.90;;
68089;SDS011;54880;50.986;6.990;2022-11-21T08:31:35;13.40;;;5.55;;
68089;SDS011;54880;50.986;6.990;2022-11-21T08:34:01;15.83;;;6.00;;
68089;SDS011;54880;50.986;6.990;2022-11-21T08:36:26;13.53;;;6.03;;
68089;SDS011;54880;50.986;6.990;2022-11-21T08:38:51;13.87;;;5.70;;
68089;SDS011;54880;50.986;6.990;2022-11-21T08:41:16;14.03;;;5.70;;
68089;SDS011;54880;50.986;6.990;2022-11-21T08:44:00;12.23;;;5.40;;
68089;SDS011;54880;50.986;6.990;2022-11-21T08:46:25;13.43;;;6.10;;
68089;SDS011;54880;50.986;6.990;2022-11-21T08:48:55;15.02;;;6.88;;
68089;SDS011;54880;50.986;6.990;2022-11-21T08:51:20;13.63;;;6.20;;
68089;SDS011;54880;50.986;6.990;2022-11-21T08:53:45;17.00;;;6.60;;
68089;SDS011;54880;50.986;6.990;2022-11-21T08:56:11;13.00;;;7.23;;
68089;SDS011;54880;50.986;6.990;2022-11-21T08:58:36;17.23;;;7.20;;
68089;SDS011;54880;50.986;6.990;2022-11-21T09:01:01;16.47;;;7.03;;
68089;SDS011;54880;50.986;6.990;2022-11-21T09:03:26;19.23;;;7.33;;
68089;SDS011;54880;50.986;6.990;2022-11-21T09:05:51;15.83;;;6.40;;
68089;SDS011;54880;50.986;6.990;2022-11-21T09:08:19;14.13;;;7.55;;
68089;SDS011;54880;50.986;6.990;2022-11-21T09:10:44;18.13;;;6.60;;
68089;SDS011;54880;50.986;6.990;2022-11-21T09:13:10;16.57;;;7.67;;
68089;SDS011;54880;50.986;6.990;2022-11-21T09:15:36;17.75;;;7.78;;
68089;SDS011;54880;50.986;6.990;2022-11-21T09:18:20;17.73;;;7.97;;
68089;SDS011;54880;50.986;6.990;2022-11-21T09:20:45;16.30;;;7.43;;
68089;SDS011;54880;50.986;6.990;2022-11-21T09:23:11;17.65;;;7.95;;
68089;SDS011;54880;50.986;6.990;2022-11-21T09:25:36;13.43;;;6.90;;
68089;SDS011;54880;50.986;6.990;2022-11-21T09:28:02;16.60;;;7.23;;
68089;SDS011;54880;50.986;6.990;2022-11-21T09:30:27;15.15;;;6.82;;
68089;SDS011;54880;50.986;6.990;2022-11-21T09:32:52;12.87;;;7.07;;
68089;SDS011;54880;50.986;6.990;2022-11-21T09:35:18;14.20;;;6.60;;
68089;SDS011;54880;50.986;6.990;2022-11-21T09:37:44;15.63;;;6.85;;
68089;SDS011;54880;50.986;6.990;2022-11-21T09:40:14;16.47;;;7.07;;
68089;SDS011;54880;50.986;6.990;2022-11-21T09:47:43;14.70;;;6.80;;
68089;SDS011;54880;50.986;6.990;2022-11-21T09:52:43;14.55;;;6.78;;
68089;SDS011;54880;50.986;6.990;2022-11-21T09:55:23;14.65;;;6.72;;
68089;SDS011;54880;50.986;6.990;2022-11-21T09:57:50;14.48;;;6.78;;
68089;SDS011;54880;50.986;6.990;2022-11-21T10:00:20;14.17;;;6.17;;
68089;SDS011;54880;50.986;6.990;2022-11-21T10:02:46;13.10;;;6.23;;
68089;SDS011;54880;50.986;6.990;2022-11-21T10:05:12;10.93;;;5.95;;
68089;SDS011;54880;50.986;6.990;2022-11-21T10:07:38;17.85;;;5.70;;
68089;SDS011;54880;50.986;6.990;2022-11-21T10:10:17;13.00;;;5.33;;
68089;SDS011;54880;50.986;6.990;2022-11-21T10:20:37;10.93;;;5.07;;
68089;SDS011;54880;50.986;6.990;2022-11-21T10:23:11;12.52;;;5.18;;
68089;SDS011;54880;50.986;6.990;2022-11-21T10:25:39;12.30;;;5.15;;
68089;SDS011;54880;50.986;6.990;2022-11-21T10:30:53;12.25;;;4.35;;
68089;SDS011;54880;50.986;6.990;2022-11-21T10:33:31;9.40;;;4.40;;
68089;SDS011;54880;50.986;6.990;2022-11-21T10:35:58;12.00;;;4.20;;
68089;SDS011;54880;50.986;6.990;2022-11-21T10:38:26;13.10;;;4.35;;
68089;SDS011;54880;50.986;6.990;2022-11-21T10:41:00;8.97;;;3.30;;
68089;SDS011;54880;50.986;6.990;2022-11-21T10:46:19;9.02;;;2.72;;
68089;SDS011;54880;50.986;6.990;2022-11-21T10:49:18;9.53;;;3.00;;
68089;SDS011;54880;50.986;6.990;2022-11-21T10:51:41;11.35;;;3.22;;
68089;SDS011;54880;50.986;6.990;2022-11-21T10:54:10;7.38;;;2.78;;
68089;SDS011;54880;50.986;6.990;2022-11-21T10:56:58;9.82;;;3.10;;
68089;SDS011;54880;50.986;6.990;2022-11-21T10:59:26;7.67;;;3.10;;
68089;SDS011;54880;50.986;6.990;2022-11-21T11:01:56;9.27;;;3.35;;
68089;SDS011;54880;50.986;6.990;2022-11-21T11:04:21;9.40;;;3.15;;
68089;SDS011;54880;50.986;6.990;2022-11-21T11:06:46;12.63;;;3.30;;
68089;SDS011;54880;50.986;6.990;2022-11-21T11:11:46;6.53;;;1.83;;
68089;SDS011;54880;50.986;6.990;2022-11-21T11:14:12;12.97;;;2.60;;
68089;SDS011;54880;50.986;6.990;2022-11-21T11:16:41;10.02;;;2.33;;
68089;SDS011;54880;50.986;6.990;2022-11-21T11:26:33;6.82;;;1.70;;
68089;SDS011;54880;50.986;6.990;2022-11-21T11:29:14;10.20;;;2.13;;
68089;SDS011;54880;50.986;6.990;2022-11-21T11:31:41;10.10;;;2.70;;
68089;SDS011;54880;50.986;6.990;2022-11-21T11:34:10;9.60;;;2.38;;
68089;SDS011;54880;50.986;6.990;2022-11-21T11:36:36;7.10;;;2.03;;
68089;SDS011;54880;50.986;6.990;2022-11-21T11:39:08;9.20;;;1.80;;
68089;SDS011;54880;50.986;6.990;2022-11-21T11:44:20;6.82;;;1.73;;
68089;SDS011;54880;50.986;6.990;2022-11-21T11:47:16;7.50;;;1.70;;
68089;SDS011;54880;50.986;6.990;2022-11-21T11:49:58;6.90;;;1.45;;
68089;SDS011;54880;50.986;6.990;2022-11-21T11:55:16;6.85;;;1.50;;
68089;SDS011;54880;50.986;6.990;2022-11-21T11:57:42;6.95;;;1.25;;
68089;SDS011;54880;50.986;6.990;2022-11-21T12:03:07;7.32;;;1.23;;
68089;SDS011;54880;50.986;6.990;2022-11-21T12:05:35;6.18;;;1.25;;
68089;SDS011;54880;50.986;6.990;2022-11-21T12:08:08;6.30;;;1.10;;
68089;SDS011;54880;50.986;6.990;2022-11-21T12:13:37;5.57;;;1.40;;
68089;SDS011;54880;50.986;6.990;2022-11-21T12:16:03;6.03;;;1.50;;
68089;SDS011;54880;50.986;6.990;2022-11-21T12:23:21;6.40;;;1.60;;
68089;SDS011;54880;50.986;6.990;2022-11-21T12:28:20;4.72;;;1.20;;
68089;SDS011;54880;50.986;6.990;2022-11-21T12:30:50;4.95;;;1.38;;
68089;SDS011;54880;50.986;6.990;2022-11-21T12:33:19;4.63;;;1.17;;
68089;SDS011;54880;50.986;6.990;2022-11-21T12:36:06;5.63;;;1.40;;
68089;SDS011;54880;50.986;6.990;2022-11-21T12:41:27;5.65;;;1.00;;
68089;SDS011;54880;50.986;6.990;2022-11-21T12:47:00;6.47;;;1.75;;
68089;SDS011;54880;50.986;6.990;2022-11-21T12:49:33;6.37;;;1.53;;
68089;SDS011;54880;50.986;6.990;2022-11-21T12:52:30;10.57;;;1.52;;
68089;SDS011;54880;50.986;6.990;2022-11-21T12:55:23;8.18;;;1.70;;
68089;SDS011;54880;50.986;6.990;2022-11-21T12:58:07;7.13;;;1.33;;
68089;SDS011;54880;50.986;6.990;2022-11-21T13:03:42;9.07;;;1.70;;
68089;SDS011;54880;50.986;6.990;2022-11-21T13:05:48;7.10;;;1.55;;
68089;SDS011;54880;50.986;6.990;2022-11-21T13:08:19;5.70;;;1.20;;
68089;SDS011;54880;50.986;6.990;2022-11-21T13:13:49;9.05;;;1.60;;
68089;SDS011;54880;50.986;6.990;2022-11-21T13:16:22;10.20;;;1.48;;
68089;SDS011;54880;50.986;6.990;2022-11-21T13:19:22;6.47;;;1.83;;
68089;SDS011;54880;50.986;6.990;2022-11-21T13:21:49;5.60;;;1.20;;
68089;SDS011;54880;50.986;6.990;2022-11-21T13:26:59;5.13;;;1.20;;
68089;SDS011;54880;50.986;6.990;2022-11-21T13:29:24;7.63;;;1.43;;
68089;SDS011;54880;50.986;6.990;2022-11-21T13:31:49;6.63;;;1.57;;
68089;SDS011;54880;50.986;6.990;2022-11-21T13:36:55;5.43;;;1.40;;
68089;SDS011;54880;50.986;6.990;2022-11-21T13:39:24;5.20;;;1.23;;
68089;SDS011;54880;50.986;6.990;2022-11-21T13:44:37;5.80;;;1.17;;
68089;SDS011;54880;50.986;6.990;2022-11-21T13:47:08;6.03;;;1.15;;
68089;SDS011;54880;50.986;6.990;2022-11-21T13:57:30;6.07;;;1.30;;
68089;SDS011;54880;50.986;6.990;2022-11-21T14:05:22;9.35;;;1.50;;
68089;SDS011;54880;50.986;6.990;2022-11-21T14:07:49;6.50;;;1.40;;
68089;SDS011;54880;50.986;6.990;2022-11-21T14:12:49;7.45;;;1.60;;
68089;SDS011;54880;50.986;6.990;2022-11-21T14:15:18;6.67;;;1.60;;
68089;SDS011;54880;50.986;6.990;2022-11-21T14:17:47;5.72;;;1.77;;
68089;SDS011;54880;50.986;6.990;2022-11-21T14:22:45;6.57;;;1.27;;
68089;SDS011;54880;50.986;6.990;2022-11-21T14:25:14;7.47;;;1.30;;
68089;SDS011;54880;50.986;6.990;2022-11-21T14:27:41;7.20;;;1.40;;
68089;SDS011;54880;50.986;6.990;2022-11-21T14:30:29;10.07;;;1.40;;
68089;SDS011;54880;50.986;6.990;2022-11-21T14:32:54;8.40;;;1.52;;
68089;SDS011;54880;50.986;6.990;2022-11-21T14:35:20;7.33;;;1.67;;
68089;SDS011;54880;50.986;6.990;2022-11-21T14:37:47;6.70;;;1.52;;
68089;SDS011;54880;50.986;6.990;2022-11-21T14:40:18;5.17;;;1.37;;
68089;SDS011;54880;50.986;6.990;2022-11-21T14:42:43;7.95;;;1.38;;
68089;SDS011;54880;50.986;6.990;2022-11-21T14:47:51;6.25;;;1.50;;
68089;SDS011;54880;50.986;6.990;2022-11-21T14:50:23;7.23;;;1.80;;
68089;SDS011;54880;50.986;6.990;2022-11-21T14:52:49;8.45;;;2.22;;
68089;SDS011;54880;50.986;6.990;2022-11-21T14:55:22;7.80;;;1.77;;
68089;SDS011;54880;50.986;6.990;2022-11-21T14:57:49;7.95;;;1.60;;
68089;SDS011;54880;50.986;6.990;2022-11-21T15:00:15;7.57;;;1.83;;
68089;SDS011;54880;50.986;6.990;2022-11-21T15:02:42;6.75;;;1.65;;
68089;SDS011;54880;50.986;6.990;2022-11-21T15:05:11;8.55;;;1.48;;
68089;SDS011;54880;50.986;6.990;2022-11-21T15:07:38;7.55;;;1.52;;
68089;SDS011;54880;50.986;6.990;2022-11-21T15:10:05;5.23;;;1.63;;
68089;SDS011;54880;50.986;6.990;2022-11-21T15:12:35;6.80;;;1.60;;
68089;SDS011;54880;50.986;6.990;2022-11-21T15:15:14;6.80;;;1.60;;
68089;SDS011;54880;50.986;6.990;2022-11-21T15:17:43;8.82;;;1.88;;
68089;SDS011;54880;50.986;6.990;2022-11-21T15:22:37;6.05;;;1.33;;
68089;SDS011;54880;50.986;6.990;2022-11-21T15:25:08;5.95;;;1.52;;
68089;SDS011;54880;50.986;6.990;2022-11-21T15:27:39;6.50;;;1.25;;
68089;SDS011;54880;50.986;6.990;2022-11-21T15:30:14;8.50;;;1.73;;
68089;SDS011;54880;50.986;6.990;2022-11-21T15:41:01;7.28;;;1.70;;
68089;SDS011;54880;50.986;6.990;2022-11-21T15:43:34;7.15;;;2.10;;
68089;SDS011;54880;50.986;6.990;2022-11-21T15:46:00;6.47;;;1.60;;
68089;SDS011;54880;50.986;6.990;2022-11-21T15:48:26;6.75;;;1.90;;
68089;SDS011;54880;50.986;6.990;2022-11-21T15:50:51;8.57;;;1.70;;
68089;SDS011;54880;50.986;6.990;2022-11-21T15:53:17;6.07;;;1.70;;
68089;SDS011;54880;50.986;6.990;2022-11-21T15:55:42;12.10;;;1.83;;
68089;SDS011;54880;50.986;6.990;2022-11-21T15:58:07;7.03;;;1.50;;
68089;SDS011;54880;50.986;6.990;2022-11-21T16:00:32;7.47;;;1.57;;
68089;SDS011;54880;50.986;6.990;2022-11-21T16:02:58;6.13;;;1.57;;
68089;SDS011;54880;50.986;6.990;2022-11-21T16:05:23;9.33;;;2.10;;
68089;SDS011;54880;50.986;6.990;2022-11-21T16:07:48;7.83;;;1.60;;
68089;SDS011;54880;50.986;6.990;2022-11-21T16:10:13;8.33;;;1.87;;
68089;SDS011;54880;50.986;6.990;2022-11-21T16:12:39;5.47;;;1.57;;
68089;SDS011;54880;50.986;6.990;2022-11-21T16:15:04;6.37;;;1.70;;
68089;SDS011;54880;50.986;6.990;2022-11-21T16:17:29;9.35;;;2.00;;
68089;SDS011;54880;50.986;6.990;2022-11-21T16:19:55;9.13;;;1.63;;
68089;SDS011;54880;50.986;6.990;2022-11-21T16:22:20;7.93;;;1.90;;
68089;SDS011;54880;50.986;6.990;2022-11-21T16:24:45;7.73;;;1.60;;